createdAt,value
2018-05-31T00:01:59.857Z,97.33
2018-05-31T00:04:28.977Z,100.07
2018-05-31T00:06:58.113Z,96.77
2018-05-31T00:09:27.553Z,99.10
2018-05-31T00:11:56.678Z,100.07
2018-05-31T00:14:25.803Z,101.60
2018-05-31T00:16:55.249Z,99.87
2018-05-31T00:19:24.365Z,106.17
2018-05-31T00:21:53.494Z,106.80
2018-05-31T00:24:22.988Z,104.00
2018-05-31T00:26:52.149Z,107.10
2018-05-31T00:29:21.313Z,109.40
2018-05-31T00:31:50.781Z,108.87
2018-05-31T00:34:19.911Z,104.07
2018-05-31T00:36:49.037Z,104.60
2018-05-31T00:39:18.197Z,107.10
2018-05-31T00:41:47.333Z,107.27
2018-05-31T00:44:16.471Z,101.20
2018-05-31T00:46:45.969Z,103.47
2018-05-31T00:49:15.102Z,101.97
2018-05-31T00:51:44.245Z,100.70
2018-05-31T00:54:13.772Z,98.77
2018-05-31T00:56:42.913Z,100.53
2018-05-31T00:59:12.085Z,102.50
2018-05-31T01:01:41.225Z,103.00
2018-05-31T01:04:10.361Z,104.07
2018-05-31T01:06:39.497Z,99.10
2018-05-31T01:09:08.954Z,98.30
2018-05-31T01:11:38.081Z,96.57
2018-05-31T01:14:07.211Z,93.30
2018-05-31T01:16:36.477Z,93.50
2018-05-31T01:19:05.621Z,99.07
2018-05-31T01:21:34.752Z,97.47
2018-05-31T01:24:04.341Z,103.30
2018-05-31T01:26:33.469Z,98.60
2018-05-31T01:29:02.598Z,101.17
2018-05-31T01:31:31.747Z,95.53
2018-05-31T01:34:00.869Z,95.57
2018-05-31T01:36:30.000Z,100.00
2018-05-31T01:38:59.456Z,91.80
2018-05-31T01:41:28.589Z,94.60
2018-05-31T01:43:57.732Z,97.20
2018-05-31T01:46:26.881Z,96.40
2018-05-31T01:48:56.009Z,97.40
2018-05-31T01:51:25.137Z,101.10
2018-05-31T01:53:54.616Z,100.13
2018-05-31T01:56:23.761Z,97.57
2018-05-31T01:58:52.882Z,99.63
2018-05-31T02:01:22.017Z,98.90
2018-05-31T02:03:51.150Z,98.67
2018-05-31T02:06:20.295Z,100.10
2018-05-31T02:08:49.426Z,98.97
2018-05-31T02:11:18.567Z,98.00
2018-05-31T02:13:47.697Z,102.27
2018-05-31T02:16:17.221Z,104.30
2018-05-31T02:18:46.378Z,108.50
2018-05-31T02:21:15.506Z,114.27
2018-05-31T02:23:44.643Z,109.77
2018-05-31T02:26:13.770Z,106.60
2018-05-31T02:28:42.921Z,107.70
2018-05-31T02:31:12.471Z,107.40
2018-05-31T02:33:41.616Z,104.30
2018-05-31T02:36:10.773Z,107.60
2018-05-31T02:38:40.366Z,104.27
2018-05-31T02:41:09.500Z,101.60
2018-05-31T02:43:38.645Z,107.97
2018-05-31T02:46:08.113Z,106.93
2018-05-31T02:48:37.238Z,107.37
2018-05-31T02:51:06.365Z,107.37
2018-05-31T02:53:35.524Z,103.30
2018-05-31T02:56:04.658Z,105.07
2018-05-31T02:58:33.797Z,104.13
2018-05-31T03:01:03.294Z,99.97
2018-05-31T03:03:32.429Z,101.30
2018-05-31T03:06:01.563Z,101.67
2018-05-31T03:08:30.712Z,99.97
2018-05-31T03:10:59.857Z,97.40
2018-05-31T03:13:29.014Z,99.67
2018-05-31T03:15:58.525Z,100.97
2018-05-31T03:18:27.653Z,99.20
2018-05-31T03:20:56.785Z,106.67
2018-05-31T03:23:26.334Z,104.07
2018-05-31T03:25:55.470Z,103.97
2018-05-31T03:28:24.605Z,105.97
2018-05-31T03:30:53.759Z,102.27
2018-05-31T03:33:22.892Z,101.57
2018-05-31T03:35:52.968Z,98.97
2018-05-31T03:38:22.531Z,100.43
2018-05-31T03:40:51.658Z,98.50
2018-05-31T03:43:20.805Z,99.30
2018-05-31T03:45:50.244Z,102.03
2018-05-31T03:48:19.378Z,97.40
2018-05-31T03:50:48.530Z,97.77
2018-05-31T03:53:18.017Z,103.23
2018-05-31T03:55:47.153Z,98.83
2018-05-31T03:58:16.285Z,100.80
2018-05-31T04:00:45.762Z,98.83
2018-05-31T04:03:14.909Z,98.33
2018-05-31T04:05:44.041Z,100.57
2018-05-31T04:08:13.193Z,105.27
2018-05-31T04:10:42.350Z,102.53
2018-05-31T04:13:11.501Z,103.67
2018-05-31T04:15:41.009Z,101.70
2018-05-31T04:18:10.154Z,100.57
2018-05-31T04:20:39.398Z,101.63
2018-05-31T04:23:08.538Z,96.63
2018-05-31T04:25:37.725Z,100.50
2018-05-31T04:28:06.841Z,97.70
2018-05-31T04:30:36.601Z,99.00
2018-05-31T04:33:05.737Z,98.67
2018-05-31T04:35:34.871Z,103.07
2018-05-31T04:38:04.014Z,98.37
2018-05-31T04:40:33.172Z,105.47
2018-05-31T04:43:02.300Z,96.97
2018-05-31T04:45:31.780Z,99.30
2018-05-31T04:48:00.912Z,100.13
2018-05-31T04:50:30.087Z,98.40
2018-05-31T04:52:59.577Z,99.07
2018-05-31T04:55:28.738Z,94.70
2018-05-31T04:57:57.900Z,96.77
2018-05-31T05:00:27.053Z,89.90
2018-05-31T05:02:56.193Z,94.90
2018-05-31T05:05:25.307Z,93.53
2018-05-31T05:07:54.772Z,89.27
2018-05-31T05:10:23.923Z,87.07
2018-05-31T05:12:53.065Z,84.77
2018-05-31T05:15:22.556Z,87.03
2018-05-31T05:17:51.692Z,84.13
2018-05-31T05:20:20.807Z,85.43
2018-05-31T05:22:49.942Z,79.37
2018-05-31T05:25:19.070Z,85.83
2018-05-31T05:27:48.198Z,87.63
2018-05-31T05:30:17.386Z,90.27
2018-05-31T05:32:46.513Z,86.17
2018-05-31T05:35:15.626Z,86.83
2018-05-31T05:37:45.113Z,84.73
2018-05-31T05:40:14.365Z,83.13
2018-05-31T05:42:43.490Z,88.10
2018-05-31T05:45:13.025Z,84.40
2018-05-31T05:47:42.153Z,86.13
2018-05-31T05:50:11.312Z,86.10
2018-05-31T05:52:40.482Z,89.47
2018-05-31T05:55:09.615Z,87.33
2018-05-31T05:57:38.750Z,91.43
2018-05-31T06:00:07.882Z,89.70
2018-05-31T06:02:37.133Z,86.47
2018-05-31T06:05:06.256Z,90.67
2018-05-31T06:07:35.410Z,91.77
2018-05-31T06:10:04.564Z,92.27
2018-05-31T06:12:33.661Z,92.10
2018-05-31T06:15:02.796Z,90.73
2018-05-31T06:17:31.917Z,92.90
2018-05-31T06:20:01.107Z,94.20
2018-05-31T06:22:30.677Z,88.70
2018-05-31T06:24:59.813Z,93.97
2018-05-31T06:27:28.952Z,89.50
2018-05-31T06:29:58.491Z,89.87
2018-05-31T06:32:27.633Z,84.53
2018-05-31T06:34:56.770Z,83.87
2018-05-31T06:37:25.977Z,79.70
2018-05-31T06:39:55.038Z,77.47
2018-05-31T06:42:24.246Z,73.17
2018-05-31T06:44:53.750Z,74.27
2018-05-31T06:47:22.916Z,70.47
2018-05-31T06:49:52.035Z,65.67
2018-05-31T06:52:21.517Z,70.93
2018-05-31T06:54:50.652Z,73.00
2018-05-31T06:57:19.885Z,70.63
2018-05-31T06:59:49.333Z,62.60
2018-05-31T07:02:18.471Z,66.10
2018-05-31T07:04:47.594Z,65.17
2018-05-31T07:07:16.732Z,67.10
2018-05-31T07:09:45.841Z,66.53
2018-05-31T07:12:14.971Z,65.87
2018-05-31T07:14:44.403Z,65.03
2018-05-31T07:17:13.536Z,65.57
2018-05-31T07:19:42.662Z,62.43
2018-05-31T07:22:12.131Z,61.70
2018-05-31T07:24:41.266Z,63.23
2018-05-31T07:27:10.387Z,59.97
2018-05-31T07:29:39.526Z,61.13
2018-05-31T07:32:08.647Z,57.73
2018-05-31T07:34:37.761Z,58.30
2018-05-31T07:37:06.892Z,59.87
2018-05-31T07:39:36.013Z,57.50
2018-05-31T07:42:05.162Z,59.63
2018-05-31T07:44:34.299Z,60.80
2018-05-31T07:47:03.435Z,63.00
2018-05-31T07:49:32.554Z,63.53
2018-05-31T07:52:01.992Z,65.10
2018-05-31T07:54:31.121Z,57.80
2018-05-31T07:57:00.257Z,55.97
2018-05-31T07:59:29.693Z,56.07
2018-05-31T08:01:58.821Z,55.77
2018-05-31T08:04:27.957Z,54.83
2018-05-31T08:06:57.386Z,52.20
2018-05-31T08:09:26.529Z,49.23
2018-05-31T08:11:55.703Z,51.13
2018-05-31T08:14:25.154Z,51.00
2018-05-31T08:16:54.273Z,50.83
2018-05-31T08:19:23.391Z,50.33
2018-05-31T08:21:52.861Z,47.90
2018-05-31T08:24:21.990Z,51.93
2018-05-31T08:26:51.127Z,53.30
2018-05-31T08:29:20.279Z,52.33
2018-05-31T08:31:49.407Z,54.30
2018-05-31T08:34:18.520Z,51.63
2018-05-31T08:36:47.643Z,56.17
2018-05-31T08:39:16.768Z,56.47
2018-05-31T08:41:45.893Z,58.40
2018-05-31T08:44:15.037Z,56.20
2018-05-31T08:46:44.157Z,57.90
2018-05-31T08:49:13.269Z,59.87
2018-05-31T08:51:42.709Z,59.20
2018-05-31T08:54:11.838Z,61.27
2018-05-31T08:56:40.983Z,62.30
2018-05-31T08:59:10.109Z,64.77
2018-05-31T09:01:39.225Z,68.70
2018-05-31T09:04:08.335Z,65.00
2018-05-31T09:06:37.791Z,66.83
2018-05-31T09:09:06.917Z,64.70
2018-05-31T09:11:41.319Z,68.40
2018-05-31T09:14:20.425Z,70.40
2018-05-31T09:17:00.403Z,64.87
2018-05-31T09:19:30.690Z,44.57
2018-05-31T09:22:00.132Z,35.77
2018-05-31T09:24:29.208Z,26.90
2018-05-31T09:26:58.342Z,24.30
2018-05-31T09:29:27.801Z,16.03
2018-05-31T09:31:56.923Z,16.27
2018-05-31T09:34:26.053Z,14.37
2018-05-31T09:36:55.282Z,14.30
2018-05-31T09:39:24.703Z,15.00
2018-05-31T09:41:53.857Z,14.13
2018-05-31T09:44:22.993Z,14.67
2018-05-31T09:46:52.143Z,15.73
2018-05-31T09:49:21.253Z,14.50
2018-05-31T09:51:50.694Z,17.30
2018-05-31T09:54:20.032Z,19.03
2018-05-31T09:56:49.146Z,20.23
2018-05-31T09:59:18.272Z,19.80
2018-05-31T10:01:47.384Z,18.03
2018-05-31T10:04:16.544Z,17.73
2018-05-31T10:06:46.010Z,15.40
2018-05-31T10:09:15.172Z,12.50
2018-05-31T10:11:44.297Z,12.00
2018-05-31T10:14:13.773Z,10.30
2018-05-31T10:16:42.996Z,9.40
2018-05-31T10:19:12.123Z,10.33
2018-05-31T10:21:42.641Z,10.63
2018-05-31T10:24:11.862Z,11.00
2018-05-31T10:26:41.003Z,11.37
2018-05-31T10:29:10.129Z,12.47
2018-05-31T10:31:43.039Z,12.47
2018-05-31T10:34:13.269Z,12.93
2018-05-31T10:36:48.195Z,12.13
2018-05-31T10:39:20.861Z,11.60
2018-05-31T10:42:01.738Z,11.67
2018-05-31T10:47:20.849Z,10.33
2018-05-31T10:49:50.394Z,10.20
2018-05-31T10:52:19.643Z,9.03
2018-05-31T10:54:54.223Z,8.57
2018-05-31T11:00:08.851Z,7.87
2018-05-31T11:02:38.645Z,6.90
2018-05-31T11:05:11.635Z,7.17
2018-05-31T11:07:48.394Z,7.13
2018-05-31T11:10:23.569Z,7.30
2018-05-31T11:12:55.216Z,7.30
2018-05-31T11:15:24.498Z,8.10
2018-05-31T11:17:53.658Z,9.90
2018-05-31T11:20:23.248Z,10.27
2018-05-31T11:22:52.377Z,11.23
2018-05-31T11:25:21.477Z,10.10
2018-05-31T11:27:53.157Z,9.10
2018-05-31T11:30:22.578Z,9.50
2018-05-31T11:32:52.778Z,5.37
2018-05-31T11:35:21.890Z,7.97
2018-05-31T11:37:51.015Z,8.37
2018-05-31T11:40:20.458Z,8.90
2018-05-31T11:42:49.586Z,6.60
2018-05-31T11:45:18.718Z,6.03
2018-05-31T11:47:47.843Z,6.20
2018-05-31T11:50:16.953Z,6.50
2018-05-31T11:52:46.081Z,5.90
2018-05-31T11:55:15.213Z,6.80
2018-05-31T11:57:44.347Z,7.13
2018-05-31T12:00:13.502Z,8.00
2018-05-31T12:02:42.620Z,7.53
2018-05-31T12:05:11.768Z,8.10
2018-05-31T12:07:40.882Z,6.83
2018-05-31T12:10:10.015Z,6.90
2018-05-31T12:12:39.153Z,5.90
2018-05-31T12:15:08.356Z,7.60
2018-05-31T12:17:41.078Z,6.87
2018-05-31T12:20:11.209Z,5.60
2018-05-31T12:22:40.899Z,5.70
2018-05-31T12:25:10.187Z,6.80
2018-05-31T12:27:42.035Z,6.07
2018-05-31T12:30:15.119Z,5.40
2018-05-31T12:32:50.602Z,5.30
2018-05-31T12:35:22.010Z,4.83
2018-05-31T12:37:52.602Z,4.30
2018-05-31T12:40:22.333Z,5.10
2018-05-31T12:42:53.947Z,5.70
2018-05-31T12:45:25.493Z,5.30
2018-05-31T12:47:59.600Z,5.97
2018-05-31T12:53:25.172Z,4.63
2018-05-31T12:55:56.074Z,5.53
2018-05-31T12:58:25.245Z,5.90
2018-05-31T13:00:54.381Z,5.30
2018-05-31T13:03:23.509Z,4.67
2018-05-31T13:05:52.692Z,4.23
2018-05-31T13:08:21.749Z,5.40
2018-05-31T13:10:50.863Z,4.77
2018-05-31T13:13:19.977Z,5.20
2018-05-31T13:15:49.090Z,4.40
2018-05-31T13:18:18.218Z,5.20
2018-05-31T13:20:47.671Z,5.80
2018-05-31T13:23:16.793Z,5.33
2018-05-31T13:25:45.905Z,6.10
2018-05-31T13:28:15.444Z,6.07
2018-05-31T13:30:48.077Z,5.40
2018-05-31T13:33:17.218Z,6.20
2018-05-31T13:35:46.329Z,5.80
2018-05-31T13:38:19.709Z,5.53
2018-05-31T13:40:48.809Z,5.80
2018-05-31T13:43:17.929Z,6.57
2018-05-31T13:45:47.439Z,6.40
2018-05-31T13:48:16.560Z,7.20
2018-05-31T13:50:45.750Z,6.90
2018-05-31T13:53:15.409Z,5.67
2018-05-31T13:55:44.538Z,6.43
2018-05-31T13:58:13.651Z,5.80
2018-05-31T14:00:43.109Z,5.10
2018-05-31T14:03:12.230Z,5.27
2018-05-31T14:05:41.341Z,6.00
2018-05-31T14:08:10.742Z,6.70
2018-05-31T14:10:39.861Z,5.97
2018-05-31T14:13:09.025Z,6.20
2018-05-31T14:15:38.524Z,6.20
2018-05-31T14:18:07.679Z,6.13
2018-05-31T14:20:36.797Z,7.13
2018-05-31T14:23:06.025Z,7.10
2018-05-31T14:25:35.182Z,7.77
2018-05-31T14:28:04.514Z,7.57
2018-05-31T14:30:33.626Z,6.13
2018-05-31T14:33:02.746Z,6.40
2018-05-31T14:35:31.861Z,5.50
2018-05-31T14:38:00.995Z,5.77
2018-05-31T14:40:30.714Z,6.77
2018-05-31T14:42:59.901Z,5.50
2018-05-31T14:45:29.173Z,6.50
2018-05-31T14:47:58.572Z,6.10
2018-05-31T14:50:29.296Z,7.10
2018-05-31T14:52:58.588Z,7.70
2018-05-31T14:55:27.775Z,7.40
2018-05-31T14:57:56.906Z,8.17
2018-05-31T15:00:26.224Z,6.50
2018-05-31T15:02:55.432Z,8.00
2018-05-31T15:05:24.549Z,8.40
2018-05-31T15:07:53.690Z,8.90
2018-05-31T15:10:22.810Z,9.63
2018-05-31T15:12:51.977Z,9.20
2018-05-31T15:15:21.112Z,10.87
2018-05-31T15:17:50.304Z,9.33
2018-05-31T15:20:19.823Z,8.33
2018-05-31T15:22:52.253Z,9.70
2018-05-31T15:25:29.535Z,9.13
2018-05-31T15:27:58.929Z,7.20
2018-05-31T15:30:28.073Z,6.83
2018-05-31T15:32:57.221Z,6.80
2018-05-31T15:35:26.334Z,5.83
2018-05-31T15:37:55.507Z,6.37
2018-05-31T15:40:24.621Z,5.77
2018-05-31T15:42:53.758Z,5.97
2018-05-31T15:45:22.942Z,6.50
2018-05-31T15:47:52.134Z,7.40
2018-05-31T15:50:21.639Z,7.60
2018-05-31T15:52:58.985Z,7.40
2018-05-31T15:55:28.130Z,6.50
2018-05-31T15:57:57.262Z,6.67
2018-05-31T16:00:26.704Z,7.00
2018-05-31T16:02:55.822Z,6.53
2018-05-31T16:05:24.971Z,6.47
2018-05-31T16:07:54.480Z,6.30
2018-05-31T16:10:23.598Z,7.33
2018-05-31T16:12:53.321Z,8.70
2018-05-31T16:15:22.791Z,8.63
2018-05-31T16:17:51.905Z,9.30
2018-05-31T16:20:21.807Z,9.00
2018-05-31T16:22:52.157Z,8.10
2018-05-31T16:25:21.265Z,7.37
2018-05-31T16:27:50.382Z,7.53
2018-05-31T16:30:19.520Z,8.70
2018-05-31T16:32:48.639Z,10.97
2018-05-31T16:35:17.756Z,14.90
2018-05-31T16:37:47.649Z,15.27
2018-05-31T16:40:16.765Z,17.30
2018-05-31T16:42:45.898Z,17.40
2018-05-31T16:45:15.020Z,16.80
2018-05-31T16:47:44.134Z,17.10
2018-05-31T16:50:13.293Z,17.27
2018-05-31T16:52:42.422Z,15.80
2018-05-31T16:55:11.571Z,16.13
2018-05-31T16:57:40.701Z,14.73
2018-05-31T17:00:09.845Z,14.57
2018-05-31T17:02:38.958Z,14.57
2018-05-31T17:05:08.089Z,13.00
2018-05-31T17:07:37.218Z,13.87
2018-05-31T17:10:06.333Z,12.00
2018-05-31T17:12:35.499Z,12.10
2018-05-31T17:15:04.906Z,11.83
2018-05-31T17:17:34.054Z,11.50
2018-05-31T17:20:03.190Z,10.13
2018-05-31T17:22:32.653Z,11.00
2018-05-31T17:25:01.793Z,10.20
2018-05-31T17:27:30.901Z,9.30
2018-05-31T17:30:00.029Z,9.53
2018-05-31T17:32:29.221Z,11.50
2018-05-31T17:34:58.350Z,10.17
2018-05-31T17:37:27.945Z,9.63
2018-05-31T17:40:06.187Z,9.23
2018-05-31T17:42:35.381Z,8.63
2018-05-31T17:45:04.530Z,7.70
2018-05-31T17:47:37.049Z,7.80
2018-05-31T17:50:06.188Z,7.03
2018-05-31T17:52:35.424Z,7.50
2018-05-31T17:55:04.877Z,8.10
2018-05-31T17:57:34.432Z,7.60
2018-05-31T18:00:03.570Z,9.07
2018-05-31T18:02:32.706Z,8.50
2018-05-31T18:05:01.829Z,8.40
2018-05-31T18:07:30.953Z,8.70
2018-05-31T18:10:00.102Z,8.37
2018-05-31T18:12:29.226Z,7.57
2018-05-31T18:14:58.402Z,7.50
2018-05-31T18:17:28.527Z,7.20
2018-05-31T18:19:57.668Z,8.90
2018-05-31T18:22:26.854Z,8.43
2018-05-31T18:24:56.298Z,8.10
2018-05-31T18:27:26.400Z,9.80
2018-05-31T18:29:55.511Z,9.00
2018-05-31T18:32:25.038Z,10.50
2018-05-31T18:34:54.173Z,10.23
2018-05-31T18:37:23.290Z,11.70
2018-05-31T18:39:52.772Z,10.20
2018-05-31T18:42:21.948Z,11.10
2018-05-31T18:44:51.091Z,10.87
2018-05-31T18:47:20.542Z,11.60
2018-05-31T18:49:49.725Z,12.33
2018-05-31T18:52:18.898Z,10.83
2018-05-31T18:54:48.391Z,10.20
2018-05-31T18:57:17.524Z,10.67
2018-05-31T18:59:46.660Z,10.40
2018-05-31T19:02:16.113Z,9.83
2018-05-31T19:04:45.232Z,10.17
2018-05-31T19:07:14.356Z,10.43
2018-05-31T19:09:43.780Z,9.83
2018-05-31T19:12:12.910Z,9.87
2018-05-31T19:14:42.018Z,10.40
2018-05-31T19:17:11.398Z,10.43
2018-05-31T19:19:46.149Z,11.60
2018-05-31T19:27:51.313Z,14.10
2018-05-31T19:30:26.165Z,13.67
2018-05-31T19:32:55.307Z,14.27
2018-05-31T19:35:30.069Z,13.47
2018-05-31T19:37:59.213Z,12.77
2018-05-31T19:40:37.116Z,12.60
2018-05-31T19:43:15.629Z,12.87
2018-05-31T19:45:45.646Z,14.50
2018-05-31T19:48:22.012Z,13.30
2018-05-31T19:50:55.449Z,13.53
2018-05-31T19:53:36.923Z,15.03
2018-05-31T19:56:14.036Z,15.00
2018-05-31T19:58:54.153Z,16.27
2018-05-31T20:01:32.902Z,17.20
2018-05-31T20:04:05.596Z,16.97
2018-05-31T20:06:35.250Z,17.27
2018-05-31T20:09:05.598Z,17.90
2018-05-31T20:11:34.724Z,17.93
2018-05-31T20:14:03.841Z,17.93
2018-05-31T20:16:33.307Z,19.10
2018-05-31T20:19:02.441Z,19.00
2018-05-31T20:21:31.567Z,20.00
2018-05-31T20:24:00.970Z,21.53
2018-05-31T20:26:30.135Z,20.67
2018-05-31T20:28:59.242Z,21.37
2018-05-31T20:31:28.678Z,21.33
2018-05-31T20:33:57.817Z,22.37
2018-05-31T20:36:26.948Z,22.27
2018-05-31T20:38:56.499Z,23.13
2018-05-31T20:41:31.158Z,23.07
2018-05-31T20:44:00.289Z,23.40
2018-05-31T20:46:29.418Z,24.50
2018-05-31T20:48:58.553Z,24.70
2018-05-31T20:51:27.985Z,25.03
2018-05-31T20:53:57.107Z,25.40
2018-05-31T20:56:26.217Z,26.47
2018-05-31T20:58:55.649Z,26.70
2018-05-31T21:01:24.776Z,27.33
2018-05-31T21:03:53.984Z,25.67
2018-05-31T21:06:23.497Z,25.17
2018-05-31T21:08:52.617Z,26.80
2018-05-31T21:11:21.768Z,27.83
2018-05-31T21:13:51.663Z,26.53
2018-05-31T21:16:20.845Z,28.20
2018-05-31T21:18:49.985Z,27.27
2018-05-31T21:21:19.133Z,28.37
2018-05-31T21:23:48.257Z,28.97
2018-05-31T21:26:17.395Z,28.10
2018-05-31T21:28:46.897Z,28.30
2018-05-31T21:31:16.045Z,29.40
2018-05-31T21:33:45.194Z,28.10
2018-05-31T21:36:14.657Z,30.57
2018-05-31T21:38:43.778Z,30.60
2018-05-31T21:41:12.966Z,30.50
2018-05-31T21:43:42.348Z,30.10
2018-05-31T21:46:12.404Z,31.97
2018-05-31T21:48:41.536Z,31.70
2018-05-31T21:51:10.666Z,35.03
2018-05-31T21:53:39.791Z,36.20
2018-05-31T21:56:08.917Z,36.90
2018-05-31T21:58:38.350Z,37.00
2018-05-31T22:01:07.492Z,38.33
2018-05-31T22:03:37.498Z,39.37
2018-05-31T22:06:06.937Z,38.40
2018-05-31T22:08:36.062Z,38.13
2018-05-31T22:11:05.190Z,35.07
2018-05-31T22:13:34.313Z,35.37
2018-05-31T22:16:03.453Z,33.47
2018-05-31T22:18:32.566Z,33.80
2018-05-31T22:21:02.037Z,34.47
2018-05-31T22:23:31.170Z,34.90
2018-05-31T22:26:00.326Z,34.03
2018-05-31T22:28:29.441Z,34.70
2018-05-31T22:30:58.569Z,36.03
2018-05-31T22:33:27.677Z,33.67
2018-05-31T22:35:57.136Z,33.63
2018-05-31T22:38:26.253Z,35.60
2018-05-31T22:40:55.377Z,34.77
2018-05-31T22:43:24.925Z,33.43
2018-05-31T22:45:54.076Z,31.73
2018-05-31T22:48:23.182Z,30.70
2018-05-31T22:50:52.732Z,32.90
2018-05-31T22:53:21.846Z,32.40
2018-05-31T22:55:50.981Z,30.90
2018-05-31T22:58:20.530Z,33.43
2018-05-31T23:00:49.651Z,32.60
2018-05-31T23:03:18.781Z,32.80
2018-05-31T23:05:47.911Z,31.77
2018-05-31T23:08:17.029Z,30.97
2018-05-31T23:10:46.169Z,32.10
2018-05-31T23:13:15.304Z,32.17
2018-05-31T23:15:44.427Z,30.80
2018-05-31T23:18:13.553Z,31.07
2018-05-31T23:20:42.996Z,30.90
2018-05-31T23:23:12.225Z,31.97
2018-05-31T23:25:41.353Z,32.50
2018-05-31T23:28:10.801Z,33.57
2018-05-31T23:30:39.938Z,33.10
2018-05-31T23:33:09.053Z,33.40
2018-05-31T23:35:38.531Z,34.40
2018-05-31T23:38:07.633Z,35.63
2018-05-31T23:40:36.756Z,34.20
2018-05-31T23:43:06.277Z,36.43
2018-05-31T23:45:35.404Z,35.37
2018-05-31T23:48:04.527Z,35.70
2018-05-31T23:50:33.833Z,37.00
2018-05-31T23:53:03.206Z,35.00
2018-05-31T23:55:32.344Z,36.30
2018-05-31T23:58:01.799Z,35.73
